Borup, Minnesota
Current Conditions -  °F | °C
As of 9:53 AM on Wednesday 26 Nov 2014 (Local Time) from KFAR Reporting Station
Overcast Overcast  
Wind Chill: -15°   Ceiling: 11000
Heat Index:   Visibility: 9mi
Dew Point: -3°   Wind: 16mph
Humidity: 73%   Direction: 360°N
Pressure: 30.37"   Gusts: NA
Location:  47.18°N, 96.51°W
Report Text: KFAR 261553Z 36014KT 9SM SCT070 OVC110 M16/M19 A3037 RMK AO2 SLP305 T11561194
Loading
Personal Weather Stations






























Interactive Weather Map New forecast layout! Learn more

10-Day Weather Forecast

Advertisements
Track Severe Weather on mobile